Rhinelander, WI

8:30 AM CST on February 28, 2015 (GMT -0600)
Rhinelander CW5781 | Change Station
CLOSE
Current Station
Personal Weather Station
Location: Rhinelander, WI
Elevation: 1520 ft
Nearby Weather Stations
Active Advisory: Special Statement

Elev 1520 ft 45.64 °N, 89.39 °W | Updated 5 seconds ago

Partly Cloudy
Partly Cloudy
-1.1 °F
Feels Like -1 °F
N
2.0
Wind Variable Wind from West
Gusts 4.0 mph

Today
High -- | Low -- °F
--% Chance of Precip.
Yesterday
High -- | Low -- °F
Precip. -- in
6:38 AM 5:42 PM
Waxing Gibbous, 78% visible
Pressure 30.63 in
Visibility 10.0 miles
Clouds Clear
Windchill -1 °F
Dew Point -4 °F
Humidity 87%
Rainfall 0.00 in
Snow Depth Not available.
UV 1 out of 12
Pollen .40 out of 12
Air Quality Not available.
Flu Activity Not available.
METAR KRHI 281353Z AUTO 23005KT 10SM CLR M21/M24 A3048 RMK AO2 SLP371 T12111239

More Conditions Fewer Conditions

Pressure 30.63 in
Visibility 10.0 miles
Clouds Clear
Windchill -1 °F
Dew Point -4 °F
Humidity 87%
Rainfall 0.00 in
Snow Depth Not available.
UV 1 out of 12
Pollen .40 out of 12
Air Quality Not available.
Flu Activity Not available.
METAR KRHI 281353Z AUTO 23005KT 10SM CLR M21/M24 A3048 RMK AO2 SLP371 T12111239

More Conditions Fewer Conditions

10-Day Weather Forecast

Almanac

Astronomy

Feb. 28, 2015 Rise Set
Actual Time
Civil Twilight
Nautical Twilight
Astronomical Twilight
Moon
Length of Visible Light
Length of Day
Tomorrow will be .
, % of the Moon is Illuminated

Today's Extremes

State Highs State Lows

Community

WunderPhotos

Upload Photos

1,801,022 photos uploaded!

WunderBlogs® & News

Nearby

Air Quality

  Air Quality AQ Index Pollutant
Not available.

Snow Depth

Station Depth Elevation

Earthquake Activity

City Distance Mag. Time & Date
Minimum magnitude displayed is 2.5.

Coastal Water Temperatures

Place Temperature

Nearby Weather Stations

Special Statement
Statement as of 1:57 AM CST on February 28, 2015

... Very cold temperatures early this morning...

Lows this morning will be as cold as 10 below to 20 below zero
over north central Wisconsin... 5 below to 10 below zero in
central and far northeast Wisconsin... and around zero in east
central Wisconsin. Although winds will be calm in some of the
coldest spots... occasional southwest winds around 5 mph will
produce pockets of wind chills as cold as 15 below to 25 below
zero.

If proper precautions are not taken... temperatures and wind chills
this low can result in frostbite on exposed skin in 30 minutes.
Be sure to dress appropriately if heading outside early this
morning.